Time;durP1;ratioP1;P1;durP2;ratioP2;P2;SDS_P1;SDS_P2;PMS_P1;PMS_P2;Temp;Humidity;BMP_temperature;BMP_pressure;BME280_temperature;BME280_humidity;BME280_pressure;Samples;Min_cycle;Max_cycle;Signal;HPM_P1;HPM_P2
2023/07/14 00:00:59;;;;;;;3.15;2.65;;;16.90;99.90;;;17.82;66.88;98222.94;10348390;28;20226;-77
2023/07/14 00:06:04;;;;;;;3.45;2.50;;;16.80;99.90;;;17.68;67.61;98218.97;10352483;28;20714;-75
2023/07/14 00:11:13;;;;;;;3.13;2.40;;;16.70;99.90;;;17.59;68.03;98213.50;10351409;28;20230;-77
2023/07/14 00:16:19;;;;;;;3.92;2.80;;;16.70;99.90;;;17.54;68.30;98209.06;10350766;28;20254;-76
2023/07/14 00:21:26;;;;;;;3.05;2.42;;;16.60;99.90;;;17.49;69.22;98210.59;10348994;28;20234;-76
2023/07/14 00:26:30;;;;;;;3.28;2.78;;;16.60;99.90;;;17.39;68.90;98212.78;10351375;28;20226;-75
2023/07/14 00:31:34;;;;;;;2.67;2.47;;;16.50;99.90;;;17.25;69.36;98207.13;10345815;28;20270;-76
2023/07/14 00:36:39;;;;;;;3.33;2.30;;;16.30;99.90;;;17.31;69.58;98200.50;10352945;28;20227;-77
2023/07/14 00:41:42;;;;;;;3.33;3.00;;;16.40;99.90;;;17.28;69.63;98209.81;10355359;28;20229;-76
2023/07/14 00:46:46;;;;;;;3.10;2.88;;;16.30;99.90;;;17.19;70.47;98206.91;10350963;28;20806;-76
2023/07/14 00:51:51;;;;;;;2.97;2.63;;;16.30;99.90;;;17.13;70.93;98214.44;10362930;28;20268;-77
2023/07/14 00:56:56;;;;;;;3.70;2.70;;;16.20;99.90;;;17.08;71.20;98203.91;10360396;28;20305;-76
2023/07/14 01:02:21;;;;;;;3.97;3.00;;;16.10;99.90;;;16.96;72.19;98200.88;10361527;28;20838;-76
2023/07/14 01:07:31;;;;;;;3.10;2.80;;;16.00;99.90;;;16.94;72.27;98198.25;10364487;28;20277;-76
2023/07/14 01:12:40;;;;;;;3.70;3.28;;;16.00;99.90;;;16.84;73.05;98190.97;10359890;28;20264;-76
2023/07/14 01:17:44;;;;;;;3.53;3.13;;;15.90;99.90;;;16.85;72.97;98193.63;10361404;28;20589;-77
2023/07/14 01:23:00;;;;;;;3.10;2.80;;;15.90;99.90;;;16.83;72.12;98189.22;10360446;28;20227;-78
2023/07/14 01:28:07;;;;;;;3.83;3.25;;;16.00;99.90;;;16.73;72.53;98187.06;10363078;28;20312;-78
2023/07/14 01:33:15;;;;;;;3.20;2.90;;;15.80;99.90;;;16.65;72.98;98185.09;10353334;28;21299;-78
2023/07/14 01:38:19;;;;;;;3.45;3.05;;;15.80;99.90;;;16.52;73.49;98182.84;10364113;28;20226;-78
2023/07/14 01:43:24;;;;;;;4.30;3.05;;;15.60;99.90;;;16.41;73.85;98178.97;10363723;28;20236;-77
2023/07/14 01:48:34;;;;;;;3.20;3.00;;;15.50;99.90;;;16.42;74.19;98183.28;10361612;28;20222;-74
2023/07/14 01:53:43;;;;;;;3.28;3.08;;;15.60;99.90;;;16.50;74.26;98174.16;10358645;28;20234;-76
2023/07/14 01:58:56;;;;;;;3.40;3.10;;;15.60;99.90;;;16.37;74.20;98171.94;10356839;28;20223;-77
2023/07/14 02:04:04;;;;;;;3.25;2.95;;;15.50;99.90;;;16.18;75.52;98168.63;10358404;28;20223;-77
2023/07/14 02:09:09;;;;;;;2.78;2.58;;;15.30;99.90;;;16.14;75.21;98160.72;10358494;28;20333;-77
2023/07/14 02:14:19;;;;;;;3.22;2.95;;;15.20;99.90;;;16.06;76.17;98165.56;10355506;28;20234;-78
2023/07/14 02:19:25;;;;;;;4.43;3.17;;;15.20;99.90;;;16.02;76.39;98166.22;10358716;28;20702;-76
2023/07/14 02:24:31;;;;;;;3.25;3.05;;;15.10;99.90;;;15.93;76.36;98160.72;10359478;28;20231;-77
2023/07/14 02:29:35;;;;;;;4.13;2.92;;;15.00;99.90;;;15.89;76.87;98162.28;10354507;28;20664;-75
2023/07/14 02:34:45;;;;;;;4.70;3.42;;;14.90;99.90;;;15.60;78.21;98167.91;10354490;28;20333;-74
2023/07/14 02:39:50;;;;;;;3.95;3.65;;;14.70;99.90;;;15.66;78.16;98153.56;10354792;28;20281;-74
2023/07/14 02:44:55;;;;;;;3.58;3.38;;;14.80;99.90;;;15.69;78.25;98164.03;10355082;28;20227;-77
2023/07/14 02:49:58;;;;;;;3.72;3.53;;;14.80;99.90;;;15.64;78.75;98165.50;10356222;28;20745;-75
2023/07/14 02:55:02;;;;;;;3.80;3.50;;;14.80;99.90;;;15.50;78.97;98166.63;10361338;28;20225;-76
2023/07/14 03:00:10;;;;;;;3.92;3.60;;;14.70;99.90;;;15.58;79.14;98161.81;10357464;28;20409;-76
2023/07/14 03:05:14;;;;;;;3.33;3.05;;;14.70;99.90;;;15.45;79.20;98162.97;10362347;28;20254;-76
2023/07/14 03:10:17;;;;;;;3.72;3.33;;;14.60;99.90;;;15.43;79.26;98156.88;10356786;28;20237;-76
2023/07/14 03:15:22;;;;;;;3.78;3.25;;;14.60;99.90;;;15.50;78.61;98158.88;10356318;28;20237;-76
2023/07/14 03:20:25;;;;;;;3.42;3.13;;;14.70;99.90;;;15.57;78.42;98153.19;10355348;28;20249;-76
2023/07/14 03:25:28;;;;;;;4.28;3.53;;;14.70;99.90;;;15.50;78.49;98156.31;10353817;28;20225;-77
2023/07/14 03:30:40;;;;;;;3.78;3.30;;;14.60;99.90;;;15.37;79.35;98143.75;10355709;28;20252;-74
2023/07/14 03:35:43;;;;;;;3.95;3.50;;;14.50;99.90;;;15.35;79.56;98140.22;10352838;28;20681;-76
2023/07/14 03:40:47;;;;;;;4.28;3.88;;;14.50;99.90;;;15.28;79.56;98127.06;10350615;28;20228;-76
2023/07/14 03:45:51;;;;;;;4.30;3.92;;;14.40;99.90;;;15.10;80.96;98118.53;10351373;28;20257;-76
2023/07/14 03:51:01;;;;;;;4.32;4.00;;;14.30;99.90;;;14.95;82.16;98130.75;10357063;28;20341;-77
2023/07/14 03:56:05;;;;;;;4.28;3.38;;;14.10;99.90;;;14.97;81.90;98121.41;10354919;28;20305;-76
2023/07/14 04:01:09;;;;;;;4.05;3.20;;;14.00;99.90;;;14.90;82.35;98132.25;10355047;28;20230;-76
2023/07/14 04:06:13;;;;;;;6.72;3.70;;;14.10;99.90;;;14.95;82.92;98129.06;10350056;28;20245;-76
2023/07/14 04:11:16;;;;;;;4.13;3.72;;;14.10;99.90;;;15.07;82.47;98121.00;10355916;28;20234;-76
2023/07/14 04:16:23;;;;;;;3.70;3.40;;;14.30;99.90;;;15.36;81.03;98114.50;10351570;28;20233;-76
2023/07/14 04:21:27;;;;;;;4.10;3.70;;;14.50;99.90;;;15.46;81.42;98114.09;10350066;28;20245;-76
2023/07/14 04:26:30;;;;;;;3.90;3.53;;;14.70;99.90;;;15.70;80.53;98119.41;10351211;28;20230;-76
2023/07/14 04:31:35;;;;;;;6.07;3.38;;;14.90;99.90;;;15.91;79.17;98113.34;10352933;28;20281;-76
2023/07/14 04:36:38;;;;;;;4.70;3.90;;;15.00;99.90;;;16.06;79.08;98118.25;10359917;28;20241;-76
2023/07/14 04:41:41;;;;;;;3.90;3.55;;;15.20;99.90;;;16.48;76.96;98120.72;10353748;28;20248;-76
2023/07/14 04:46:47;;;;;;;3.95;3.38;;;15.40;99.90;;;16.44;76.29;98125.78;10352297;28;20230;-75
2023/07/14 04:51:50;;;;;;;4.63;4.22;;;15.40;99.90;;;16.25;77.26;98127.59;10356371;28;20242;-76
2023/07/14 04:56:53;;;;;;;5.40;3.97;;;15.30;99.90;;;16.35;77.38;98125.44;10366358;28;20242;-76
2023/07/14 05:01:58;;;;;;;4.65;4.03;;;15.50;99.90;;;16.89;76.23;98117.16;10354258;28;20675;-77
2023/07/14 05:07:01;;;;;;;4.93;4.20;;;16.10;99.90;;;17.40;72.95;98098.25;10354909;28;20794;-76
2023/07/14 05:12:07;;;;;;;4.63;3.75;;;16.50;99.90;;;17.75;71.82;98095.13;10349734;28;20234;-77
2023/07/14 05:17:11;;;;;;;4.82;3.83;;;16.80;99.90;;;18.27;69.47;98095.06;10356265;28;20707;-77
2023/07/14 05:22:14;;;;;;;5.10;4.18;;;17.40;99.90;;;18.79;67.20;98087.13;10352169;28;20356;-77
2023/07/14 05:27:17;;;;;;;5.03;3.50;;;17.90;99.90;;;19.16;65.80;98079.50;10355369;28;20226;-77
2023/07/14 05:32:24;;;;;;;6.72;3.80;;;18.10;99.90;;;19.18;64.31;98086.50;10340703;28;20226;-75
2023/07/14 05:37:27;;;;;;;4.07;3.53;;;18.10;99.90;;;19.07;64.72;98083.59;10353137;28;20333;-77
2023/07/14 05:42:30;;;;;;;4.68;3.72;;;17.90;99.90;;;19.40;62.91;98084.44;10361831;28;20233;-75
2023/07/14 05:47:37;;;;;;;4.18;3.40;;;18.50;99.90;;;19.95;59.78;98088.47;10353696;28;21926;-75
2023/07/14 05:52:40;;;;;;;4.60;3.78;;;18.90;99.90;;;19.90;59.89;98090.06;10346957;28;20325;-74
2023/07/14 05:57:44;;;;;;;4.18;3.63;;;18.70;99.90;;;20.44;58.01;98079.19;10359814;28;20249;-74
2023/07/14 06:02:50;;;;;;;3.97;3.67;;;19.30;99.90;;;20.47;57.80;98076.66;10361022;28;20218;-75
2023/07/14 06:07:53;;;;;;;4.72;3.40;;;19.10;99.90;;;20.78;56.95;98083.41;10345583;28;20823;-75
2023/07/14 06:12:56;;;;;;;4.35;3.88;;;19.50;99.90;;;21.31;55.50;98082.66;10353970;28;20238;-75
2023/07/14 06:18:01;;;;;;;3.92;3.45;;;20.10;99.90;;;21.77;53.99;98062.66;10352622;28;20233;-75
2023/07/14 06:23:04;;;;;;;3.92;2.60;;;20.40;98.90;;;22.46;52.40;98056.78;10348840;28;20235;-75
2023/07/14 06:28:07;;;;;;;6.00;4.03;;;21.10;98.10;;;22.96;50.43;98050.47;10342900;28;20289;-74
2023/07/14 06:33:13;;;;;;;3.40;3.10;;;21.40;96.30;;;23.47;48.33;98045.75;10356799;28;20238;-76
2023/07/14 06:38:16;;;;;;;3.15;2.80;;;21.70;94.70;;;24.09;46.64;98050.59;10357713;28;20629;-75
2023/07/14 06:43:19;;;;;;;4.50;3.28;;;22.30;93.80;;;23.49;48.63;98044.00;10346831;28;20930;-76
2023/07/14 06:48:26;;;;;;;3.60;2.88;;;21.80;94.90;;;23.03;51.21;98038.34;10362094;28;20694;-76
2023/07/14 06:53:29;;;;;;;4.63;2.88;;;21.50;96.50;;;24.55;47.92;98029.09;10356780;28;20313;-76
2023/07/14 06:58:32;;;;;;;3.65;2.65;;;23.10;94.10;;;25.44;45.31;98027.63;10357219;28;20670;-76
2023/07/14 07:03:37;;;;;;;3.22;2.28;;;23.60;92.10;;;26.60;41.92;98025.72;10362249;28;20226;-76
2023/07/14 07:08:40;;;;;;;4.00;2.63;;;25.00;89.10;;;27.45;40.15;98015.63;10353255;28;20744;-76
2023/07/14 07:13:43;;;;;;;3.55;2.53;;;25.60;86.60;;;27.66;40.24;98018.06;10350563;28;20222;-76
2023/07/14 07:18:47;;;;;;;3.80;2.25;;;25.80;86.10;;;27.26;40.69;98017.50;10348235;28;20819;-76
2023/07/14 07:23:51;;;;;;;2.40;2.20;;;25.50;85.60;;;27.56;38.98;98011.16;10357154;28;20684;-75
2023/07/14 07:28:54;;;;;;;4.15;2.40;;;25.60;82.70;;;28.08;37.47;98008.06;10355552;28;20237;-75
2023/07/14 07:33:58;;;;;;;4.45;2.40;;;26.30;79.70;;;28.73;36.97;97995.94;10359052;28;20316;-76
2023/07/14 07:39:01;;;;;;;2.55;2.30;;;27.10;78.90;;;28.73;34.50;97993.31;10356875;28;20230;-75
2023/07/14 07:44:08;;;;;;;3.45;1.90;;;27.40;74.00;;;28.90;35.09;97985.19;10350219;28;20244;-76
2023/07/14 07:49:12;;;;;;;2.03;1.67;;;27.10;74.20;;;29.20;32.84;97983.00;10348396;28;20317;-76
2023/07/14 07:54:17;;;;;;;4.25;2.10;;;27.30;69.80;;;29.99;32.72;97982.56;10352484;28;20226;-76
2023/07/14 07:59:21;;;;;;;3.22;1.67;;;28.10;70.40;;;31.23;30.11;97965.91;10353756;28;20229;-76
2023/07/14 08:04:26;;;;;;;3.55;1.70;;;29.20;66.80;;;31.87;28.70;97965.16;10340566;28;20741;-76
2023/07/14 08:09:29;;;;;;;1.73;1.55;;;29.70;63.70;;;32.54;26.46;97961.59;10347781;28;20241;-75
2023/07/14 08:14:32;;;;;;;3.78;1.70;;;30.40;59.50;;;32.34;26.99;97963.91;10345983;28;20230;-76
2023/07/14 08:19:37;;;;;;;2.60;1.83;;;29.90;60.30;;;32.14;26.31;97957.44;10354844;28;20222;-76
2023/07/14 08:24:40;;;;;;;2.65;1.73;;;30.00;59.20;;;31.84;26.81;97948.50;10353192;28;20237;-76
2023/07/14 08:29:44;;;;;;;3.03;1.73;;;30.10;58.80;;;31.55;26.98;97936.94;10348237;28;20389;-76
2023/07/14 08:34:48;;;;;;;2.13;1.40;;;30.30;58.20;;;30.95;27.04;97945.44;10348199;28;20245;-76
2023/07/14 08:39:51;;;;;;;2.53;1.65;;;29.80;57.20;;;30.65;27.40;97933.78;10355088;28;21007;-75
2023/07/14 08:45:14;;;;;;;2.65;1.52;;;29.70;57.40;;;30.28;28.41;97931.94;10352262;28;20237;-76
2023/07/14 08:50:23;;;;;;;3.08;1.73;;;29.40;58.10;;;30.40;27.69;97920.25;10344669;28;20251;-75
2023/07/14 08:55:32;;;;;;;2.83;1.65;;;29.70;56.80;;;30.18;28.73;97930.34;10352147;28;20810;-74
2023/07/14 09:00:40;;;;;;;2.75;1.80;;;29.50;58.00;;;30.55;27.36;97925.19;10352783;28;20252;-75
2023/07/14 09:05:49;;;;;;;2.63;1.45;;;29.60;57.10;;;30.94;27.15;97918.16;10342321;28;20699;-74
2023/07/14 09:11:02;;;;;;;3.10;1.65;;;30.10;56.70;;;30.63;27.35;97914.47;10345707;28;20769;-75
2023/07/14 09:16:07;;;;;;;2.92;1.80;;;29.90;56.30;;;30.87;27.10;97911.28;10351194;28;20616;-75
2023/07/14 09:21:25;;;;;;;2.15;1.60;;;29.90;56.40;;;30.81;27.81;97906.16;10349486;28;20234;-75
2023/07/14 09:26:34;;;;;;;2.45;1.70;;;29.80;57.70;;;31.04;27.55;97902.09;10366365;28;20237;-76
2023/07/14 09:31:49;;;;;;;4.00;1.77;;;30.00;56.90;;;31.18;27.91;97895.56;10352042;28;20272;-75
2023/07/14 09:36:56;;;;;;;4.30;1.60;;;30.10;57.60;;;30.90;27.92;97890.06;10352502;28;20272;-75
2023/07/14 09:42:02;;;;;;;3.17;1.85;;;29.80;57.40;;;30.65;27.56;97895.06;10363672;28;20237;-77
2023/07/14 09:47:07;;;;;;;2.63;1.73;;;29.40;57.30;;;30.76;27.92;97886.88;10361922;28;20798;-75
2023/07/14 09:52:18;;;;;;;2.65;1.80;;;29.40;57.90;;;30.50;28.03;97895.38;10357793;28;20234;-74
2023/07/14 09:57:25;;;;;;;2.75;1.60;;;29.30;57.40;;;29.78;29.08;97883.66;10355571;28;20233;-75
2023/07/14 10:02:42;;;;;;;2.15;1.90;;;28.80;58.10;;;30.23;27.98;97881.91;10358932;28;20233;-76
2023/07/14 10:07:46;;;;;;;2.53;1.85;;;29.20;57.20;;;30.58;28.08;97876.75;10360938;28;20221;-76
2023/07/14 10:12:50;;;;;;;2.40;1.73;;;29.40;57.80;;;30.54;27.78;97878.59;10356330;28;20221;-76
2023/07/14 10:17:55;;;;;;;5.18;2.40;;;29.60;57.00;;;30.48;28.08;97871.69;10349901;28;20235;-75
2023/07/14 10:23:00;;;;;;;2.03;1.77;;;29.40;57.60;;;30.14;28.19;97865.38;10360513;28;20660;-75
2023/07/14 10:28:12;;;;;;;2.72;2.00;;;29.00;57.70;;;30.20;28.76;97862.63;10359325;28;20234;-75
2023/07/14 10:33:23;;;;;;;1.80;1.70;;;28.90;58.00;;;30.30;27.29;97861.53;10360318;28;20237;-75
2023/07/14 10:38:33;;;;;;;2.45;2.00;;;29.00;56.80;;;29.94;28.07;97857.88;10357143;28;20229;-74
2023/07/14 10:43:43;;;;;;;3.25;1.58;;;28.70;57.70;;;30.16;27.73;97838.09;10349308;28;20240;-76
2023/07/14 10:48:52;;;;;;;2.85;2.03;;;28.80;56.90;;;29.56;28.63;97841.00;10358604;28;20252;-74
2023/07/14 10:54:05;;;;;;;2.70;1.80;;;28.40;57.80;;;29.79;28.76;97837.97;10349461;28;20229;-75
2023/07/14 10:59:20;;;;;;;2.42;1.80;;;28.60;58.30;;;30.03;28.68;97836.59;10336014;28;20722;-74
2023/07/14 11:04:30;;;;;;;3.92;1.60;;;28.70;57.80;;;29.79;29.18;97833.59;10342260;28;20309;-75
2023/07/14 11:09:35;;;;;;;2.13;1.85;;;28.50;58.60;;;30.06;28.13;97832.13;10341128;28;20232;-75
2023/07/14 11:14:50;;;;;;;3.92;2.03;;;28.80;57.20;;;29.13;29.81;97824.28;10335882;28;20237;-75
2023/07/14 11:20:08;;;;;;;4.13;1.90;;;28.20;58.60;;;29.47;29.48;97815.72;10349702;28;20237;-75
2023/07/14 11:25:20;;;;;;;3.72;2.03;;;28.30;59.20;;;29.29;29.79;97822.22;10337669;28;20249;-75
2023/07/14 11:30:29;;;;;;;5.10;1.85;;;28.40;58.40;;;29.17;29.90;97823.31;10336187;28;20509;-75
2023/07/14 11:35:36;;;;;;;2.47;1.70;;;28.20;58.70;;;29.40;30.04;97819.38;10339893;28;20233;-75
2023/07/14 11:40:45;;;;;;;2.10;1.70;;;28.30;59.20;;;29.32;29.69;97813.38;10337107;28;20234;-75
2023/07/14 11:45:57;;;;;;;2.20;1.58;;;28.20;59.10;;;29.41;29.85;97811.44;10334090;28;20313;-75
2023/07/14 11:51:09;;;;;;;2.03;1.90;;;28.30;59.40;;;29.79;29.49;97788.78;10345932;28;20229;-75
2023/07/14 11:56:25;;;;;;;2.97;2.00;;;28.60;58.40;;;29.61;29.97;97778.56;10346948;28;20658;-75
2023/07/14 12:01:28;;;;;;;3.13;2.13;;;28.40;59.70;;;29.81;30.32;97791.38;10342229;28;20300;-75
2023/07/14 12:06:46;;;;;;;2.55;2.00;;;28.60;59.70;;;30.08;29.31;97796.06;10349498;28;20449;-76
2023/07/14 12:11:57;;;;;;;2.30;1.80;;;28.90;58.30;;;29.92;29.03;97786.72;10351966;28;20811;-75
2023/07/14 12:17:02;;;;;;;2.65;1.67;;;28.80;58.20;;;30.12;28.40;97782.78;10348208;28;20222;-75
2023/07/14 12:22:08;;;;;;;3.45;1.70;;;28.90;57.20;;;29.97;29.27;97776.09;10344234;28;20318;-76
2023/07/14 12:27:26;;;;;;;2.38;1.65;;;28.70;58.00;;;30.01;30.09;97759.31;10350970;28;20678;-75
2023/07/14 12:32:30;;;;;;;3.67;1.95;;;28.90;59.30;;;29.76;29.44;97770.41;10353122;28;20224;-76
2023/07/14 12:37:34;;;;;;;2.15;1.92;;;28.80;57.90;;;29.95;28.81;97757.66;10351257;28;20275;-76
2023/07/14 12:42:42;;;;;;;2.10;1.90;;;29.00;57.70;;;30.16;28.71;97758.97;10353906;28;20349;-75
2023/07/14 12:47:49;;;;;;;3.28;2.00;;;29.20;57.90;;;29.77;29.69;97755.44;10368171;28;20229;-75
2023/07/14 12:52:52;;;;;;;2.63;1.88;;;28.80;58.00;;;29.56;28.86;97747.06;10356562;28;20230;-75
2023/07/14 12:57:58;;;;;;;2.33;2.00;;;28.60;57.30;;;29.44;29.43;97731.50;10358501;28;20233;-75
2023/07/14 13:03:03;;;;;;;3.20;1.80;;;28.40;58.30;;;29.39;30.34;97725.47;10362833;28;20253;-75
2023/07/14 13:08:15;;;;;;;3.40;2.03;;;28.40;59.50;;;29.34;29.95;97729.97;10357638;28;20269;-75
2023/07/14 13:13:26;;;;;;;2.30;1.83;;;28.80;57.60;;;29.24;30.03;97713.44;10362402;28;20613;-75
2023/07/14 13:18:32;;;;;;;3.42;2.13;;;28.50;58.70;;;29.19;29.44;97705.66;10366528;28;20242;-74
2023/07/14 13:23:36;;;;;;;5.45;1.98;;;28.40;58.10;;;29.21;30.22;97708.25;10357973;28;20785;-75
2023/07/14 13:28:57;;;;;;;2.42;1.88;;;28.20;59.20;;;29.28;29.62;97693.22;10354118;28;20617;-74
2023/07/14 13:34:00;;;;;;;2.28;2.08;;;28.30;58.40;;;29.28;30.05;97693.22;10358221;28;20260;-76
2023/07/14 13:39:08;;;;;;;2.75;2.00;;;28.30;58.30;;;29.28;29.62;97680.06;10359188;28;20669;-77
2023/07/14 13:44:36;;;;;;;2.15;1.70;;;28.40;58.30;;;29.13;30.00;97682.09;10357653;28;20226;-77
2023/07/14 13:49:39;;;;;;;2.30;2.03;;;28.30;58.70;;;28.84;30.39;97677.34;10358802;28;20686;-76
2023/07/14 13:54:46;;;;;;;2.55;1.98;;;28.00;58.40;;;28.78;30.71;97666.06;10353243;28;20223;-76
2023/07/14 13:59:51;;;;;;;2.95;2.20;;;27.80;58.80;;;29.16;30.00;97662.75;10360287;28;20253;-74
2023/07/14 14:04:55;;;;;;;2.85;2.33;;;28.30;58.50;;;28.93;30.34;97652.59;10361126;28;20606;-75
2023/07/14 14:09:58;;;;;;;2.97;1.98;;;28.20;58.20;;;28.89;30.42;97637.78;10358275;28;20693;-75
2023/07/14 14:15:03;;;;;;;3.42;2.10;;;28.00;58.20;;;28.67;30.36;97630.31;10354402;28;20268;-75
2023/07/14 14:20:13;;;;;;;3.50;2.05;;;27.80;58.80;;;29.01;30.53;97632.28;10361247;28;20249;-75
2023/07/14 14:25:20;;;;;;;2.33;2.00;;;28.40;58.60;;;29.01;30.72;97621.75;10357968;28;20226;-75
2023/07/14 14:30:34;;;;;;;2.42;1.90;;;28.30;58.50;;;29.33;29.84;97607.06;10363194;28;20232;-75
2023/07/14 14:35:39;;;;;;;2.83;2.20;;;28.60;58.00;;;29.38;29.61;97610.47;10362547;28;20226;-79
2023/07/14 14:40:43;;;;;;;2.10;1.90;;;28.60;58.50;;;29.30;29.49;97593.97;10363422;28;20242;-75
2023/07/14 14:45:49;;;;;;;2.60;2.40;;;28.50;57.70;;;29.14;30.08;97591.69;10363093;28;20229;-75
2023/07/14 14:50:54;;;;;;;3.00;2.03;;;28.40;58.30;;;29.03;30.67;97579.66;10359170;28;20768;-73
2023/07/14 14:56:00;;;;;;;2.88;2.33;;;28.20;58.70;;;29.08;30.23;97570.75;10357136;28;21036;-74
2023/07/14 15:01:19;;;;;;;2.38;2.10;;;28.40;57.70;;;28.77;30.90;97559.09;10354154;28;20230;-75
2023/07/14 15:06:22;;;;;;;4.25;2.20;;;28.10;59.20;;;28.79;31.66;97552.03;10349492;28;20254;-75
2023/07/14 15:11:26;;;;;;;2.72;2.20;;;27.90;60.10;;;28.92;31.20;97543.84;10356595;28;20226;-75
2023/07/14 15:16:32;;;;;;;2.50;2.05;;;28.10;59.70;;;28.94;31.61;97541.19;10359406;28;20222;-76
2023/07/14 15:21:35;;;;;;;4.68;2.47;;;28.10;59.90;;;28.75;32.24;97538.94;10354190;28;20228;-75
2023/07/14 15:26:41;;;;;;;2.67;2.10;;;28.00;60.40;;;28.77;31.90;97528.38;10353676;28;20228;-76
2023/07/14 15:31:47;;;;;;;2.45;2.10;;;28.00;60.50;;;29.11;31.07;97528.56;10351138;28;20230;-76
2023/07/14 15:36:51;;;;;;;2.78;2.20;;;28.20;59.80;;;29.14;31.99;97517.09;10341376;28;20245;-76
2023/07/14 15:41:55;;;;;;;3.53;2.40;;;28.30;60.10;;;29.07;31.98;97511.09;10349378;28;20265;-76
2023/07/14 15:47:01;;;;;;;2.63;2.20;;;28.20;61.10;;;29.32;31.34;97492.09;10330300;28;20253;-75
2023/07/14 15:52:06;;;;;;;2.67;2.47;;;28.40;60.30;;;29.25;32.04;97485.25;10339473;28;20324;-75
2023/07/14 15:57:13;;;;;;;2.20;2.00;;;28.40;60.60;;;29.17;32.34;97491.56;10340105;28;20222;-75
2023/07/14 16:02:18;;;;;;;2.53;2.33;;;28.30;61.50;;;28.97;33.21;97488.50;10349190;28;20234;-75
2023/07/14 16:07:21;;;;;;;2.63;2.33;;;28.10;62.20;;;28.99;32.75;97491.97;10348557;28;20661;-75
2023/07/14 16:12:24;;;;;;;2.50;2.13;;;28.10;61.50;;;29.34;32.33;97483.25;10358123;28;20226;-75
2023/07/14 16:17:29;;;;;;;3.28;2.53;;;28.40;61.60;;;29.11;33.32;97475.91;10353087;28;20241;-75
2023/07/14 16:22:32;;;;;;;2.47;2.28;;;28.20;62.80;;;29.05;33.77;97464.66;10357104;28;20317;-75
2023/07/14 16:27:36;;;;;;;3.00;2.63;;;28.30;63.00;;;29.19;33.12;97468.69;10356458;28;20873;-75
2023/07/14 16:32:42;;;;;;;2.47;2.25;;;28.30;62.30;;;29.02;33.58;97460.31;10352903;28;20221;-75
2023/07/14 16:37:49;;;;;;;2.75;2.50;;;28.20;63.00;;;28.89;33.96;97461.47;10353036;28;20616;-76
2023/07/14 16:42:54;;;;;;;2.60;2.38;;;28.00;63.50;;;28.75;33.95;97456.50;10355088;28;20244;-75
2023/07/14 16:48:00;;;;;;;2.63;2.42;;;27.90;63.90;;;28.68;34.38;97452.28;10351275;28;20234;-76
2023/07/14 16:53:03;;;;;;;2.88;2.67;;;27.80;64.50;;;28.59;34.89;97448.09;10361009;28;20245;-75
2023/07/14 16:58:17;;;;;;;3.00;2.70;;;27.70;64.70;;;28.72;34.42;97446.91;10361090;28;20229;-76
2023/07/14 17:03:27;;;;;;;3.17;2.65;;;27.90;64.30;;;28.83;34.32;97443.19;10357385;28;20225;-76
2023/07/14 17:08:31;;;;;;;3.20;2.70;;;28.00;64.20;;;28.83;34.27;97440.56;10353379;28;20652;-76
2023/07/14 17:13:34;;;;;;;2.92;2.40;;;28.00;64.70;;;28.95;34.32;97435.00;10356159;28;20230;-75
2023/07/14 17:18:39;;;;;;;2.55;2.33;;;28.00;64.70;;;28.91;35.14;97434.22;10354764;28;20646;-76
2023/07/14 17:23:45;;;;;;;3.55;2.47;;;28.00;65.50;;;28.82;34.89;97425.69;10361864;28;20261;-77
2023/07/14 17:28:49;;;;;;;2.95;2.70;;;27.90;64.90;;;28.72;35.20;97425.88;10356333;28;20218;-76
2023/07/14 17:33:53;;;;;;;2.92;2.10;;;27.90;65.20;;;28.89;34.36;97427.25;10355383;28;20230;-78
2023/07/14 17:38:57;;;;;;;2.65;2.33;;;28.00;65.80;;;28.90;35.63;97426.34;10346974;28;20222;-76
2023/07/14 17:44:01;;;;;;;2.78;2.58;;;28.00;66.00;;;28.87;35.58;97429.06;10349043;28;20323;-76
2023/07/14 17:49:06;;;;;;;2.90;2.70;;;28.00;67.10;;;28.65;36.31;97424.28;10343018;28;20653;-76
2023/07/14 17:54:21;;;;;;;3.83;2.80;;;27.80;67.90;;;28.86;36.83;97406.28;10343304;28;20265;-76
2023/07/14 17:59:27;;;;;;;2.60;2.40;;;28.00;68.50;;;28.89;37.42;97398.31;10365299;28;20224;-77
2023/07/14 18:04:32;;;;;;;4.30;2.70;;;28.00;68.70;;;28.71;37.54;97400.47;10352923;28;20664;-75
2023/07/14 18:09:36;;;;;;;2.85;2.47;;;27.80;69.10;;;28.73;35.92;97405.69;10340140;28;20602;-77
2023/07/14 18:14:39;;;;;;;2.60;2.40;;;27.90;67.40;;;28.81;35.45;97402.88;10344620;28;20230;-76
2023/07/14 18:19:44;;;;;;;2.83;2.50;;;27.90;66.80;;;28.67;35.75;97401.47;10341179;28;20702;-76
2023/07/14 18:24:47;;;;;;;2.92;2.63;;;27.80;67.50;;;28.48;36.16;97411.50;10343809;28;20230;-77
2023/07/14 18:29:51;;;;;;;2.90;2.50;;;27.70;67.60;;;28.44;36.19;97398.44;10340756;28;20231;-77
2023/07/14 18:34:56;;;;;;;3.92;2.47;;;27.50;68.10;;;28.39;36.32;97416.06;10335975;28;20309;-77
2023/07/14 18:39:59;;;;;;;2.97;2.53;;;27.40;68.30;;;28.29;37.33;97410.13;10339274;28;20235;-77
2023/07/14 18:45:03;;;;;;;3.35;2.63;;;27.30;68.90;;;28.17;37.41;97413.00;10341948;28;20300;-77
2023/07/14 18:50:11;;;;;;;2.78;2.55;;;27.20;69.20;;;27.88;38.13;97414.47;10340594;28;20238;-77
2023/07/14 18:55:20;;;;;;;2.60;2.25;;;26.90;70.10;;;27.65;37.98;97412.22;10340609;28;20717;-77
2023/07/14 19:00:25;;;;;;;2.50;2.30;;;26.70;71.30;;;27.55;38.56;97410.66;10334636;28;20226;-77
2023/07/14 19:05:30;;;;;;;2.65;2.40;;;26.50;71.10;;;27.73;38.64;97420.84;10345107;28;20238;-76
2023/07/14 19:10:33;;;;;;;2.83;2.60;;;26.60;71.70;;;27.31;39.83;97423.31;10347524;28;20314;-78
2023/07/14 19:15:37;;;;;;;2.72;2.53;;;26.30;73.20;;;27.06;40.75;97416.69;10348045;28;20608;-77
2023/07/14 19:20:41;;;;;;;3.15;2.95;;;26.10;74.50;;;26.74;41.98;97426.78;10349725;28;20757;-77
2023/07/14 19:25:45;;;;;;;3.95;3.63;;;25.70;76.90;;;26.43;44.00;97436.78;10340805;28;20225;-76
2023/07/14 19:30:50;;;;;;;3.30;3.00;;;25.30;79.90;;;26.12;45.48;97436.28;10348490;28;20257;-76
2023/07/14 19:35:59;;;;;;;3.70;3.35;;;25.00;82.80;;;25.78;45.92;97433.13;10335353;28;20225;-76
2023/07/14 19:41:02;;;;;;;3.22;2.90;;;24.70;83.90;;;25.48;47.19;97426.47;10340551;28;20272;-76
2023/07/14 19:46:11;;;;;;;3.03;2.72;;;24.40;85.30;;;25.25;47.46;97434.50;10351482;28;20234;-76
2023/07/14 19:51:22;;;;;;;2.80;2.60;;;24.20;85.20;;;25.05;48.38;97432.00;10346414;28;20588;-76
2023/07/14 19:56:28;;;;;;;3.55;2.60;;;24.00;88.40;;;24.82;48.53;97437.41;10349179;28;20226;-75
2023/07/14 20:01:34;;;;;;;3.75;2.65;;;23.70;88.40;;;24.56;49.44;97435.81;10357329;28;20234;-76
2023/07/14 20:06:40;;;;;;;2.80;2.60;;;23.50;90.00;;;24.40;50.17;97436.72;10362732;28;20313;-76
2023/07/14 20:11:43;;;;;;;3.67;3.00;;;23.30;90.50;;;24.16;51.60;97446.38;10345305;28;20250;-76
2023/07/14 20:16:46;;;;;;;3.33;3.03;;;23.10;91.70;;;23.88;52.26;97439.50;10360734;28;20561;-77
2023/07/14 20:21:51;;;;;;;3.53;2.63;;;22.80;91.80;;;23.72;52.89;97451.72;10359160;28;20618;-75
2023/07/14 20:26:54;;;;;;;2.92;2.70;;;22.70;92.50;;;23.63;53.47;97452.56;10354092;28;20873;-76
2023/07/14 20:31:58;;;;;;;3.00;2.80;;;22.50;93.20;;;23.39;53.77;97456.94;10357952;28;20234;-77
2023/07/14 20:37:13;;;;;;;3.28;2.90;;;22.40;93.60;;;23.29;54.51;97463.03;10352476;28;20269;-76
2023/07/14 20:42:18;;;;;;;3.47;3.17;;;22.30;93.90;;;23.21;55.37;97470.00;10356690;28;20226;-75
2023/07/14 20:47:21;;;;;;;3.20;2.90;;;22.20;94.50;;;23.05;56.29;97470.84;10347471;28;20222;-76
2023/07/14 20:52:26;;;;;;;3.58;3.28;;;22.00;95.50;;;22.93;56.50;97469.91;10356219;28;20340;-75
2023/07/14 20:57:29;;;;;;;3.40;3.00;;;21.90;95.80;;;22.84;56.48;97469.03;10354232;28;20237;-75
2023/07/14 21:02:32;;;;;;;2.88;2.50;;;21.80;95.90;;;22.62;57.01;97468.97;10359879;28;20330;-76
2023/07/14 21:07:36;;;;;;;3.25;2.95;;;21.60;96.30;;;22.47;57.54;97458.50;10364819;28;20222;-76
2023/07/14 21:12:41;;;;;;;2.88;2.65;;;21.50;96.70;;;22.41;57.45;97467.16;10360907;28;20237;-76